createdAt,value
2023-01-29T00:02:05.743Z,14.97
2023-01-29T00:04:32.920Z,15.73
2023-01-29T00:06:59.652Z,17.03
2023-01-29T00:09:26.599Z,15.50
2023-01-29T00:11:53.266Z,16.40
2023-01-29T00:14:20.414Z,17.67
2023-01-29T00:16:47.169Z,16.80
2023-01-29T00:19:13.853Z,17.30
2023-01-29T00:21:40.513Z,18.57
2023-01-29T00:24:07.392Z,17.37
2023-01-29T00:26:34.221Z,17.63
2023-01-29T00:29:02.036Z,16.90
2023-01-29T00:31:28.815Z,16.77
2023-01-29T00:33:55.592Z,17.93
2023-01-29T00:36:22.831Z,17.60
2023-01-29T00:38:58.698Z,17.83
2023-01-29T00:41:48.953Z,16.63
2023-01-29T00:44:34.600Z,16.83
2023-01-29T00:47:02.191Z,17.97
2023-01-29T00:49:30.252Z,17.80
2023-01-29T00:52:35.342Z,16.67
2023-01-29T00:55:04.368Z,18.00
2023-01-29T00:57:34.923Z,16.93
2023-01-29T01:00:03.514Z,17.00
2023-01-29T01:02:49.123Z,16.90
2023-01-29T01:05:20.355Z,17.87
2023-01-29T01:07:49.356Z,18.50
2023-01-29T01:10:29.925Z,18.77
2023-01-29T01:12:59.780Z,17.77
2023-01-29T01:15:33.889Z,17.13
2023-01-29T01:18:01.482Z,18.40
2023-01-29T01:20:30.260Z,17.23
2023-01-29T01:22:57.097Z,18.30
2023-01-29T01:25:25.805Z,17.80
2023-01-29T01:27:54.205Z,17.00
2023-01-29T01:30:20.952Z,17.03
2023-01-29T01:32:47.588Z,17.80
2023-01-29T01:35:14.901Z,16.87
2023-01-29T01:37:41.636Z,17.23
2023-01-29T01:40:18.444Z,18.83
2023-01-29T01:42:49.239Z,18.67
2023-01-29T01:45:29.110Z,18.30
2023-01-29T01:48:01.663Z,17.87
2023-01-29T01:50:50.044Z,18.77
2023-01-29T01:53:40.526Z,18.20
2023-01-29T01:56:10.867Z,18.40
2023-01-29T01:59:11.335Z,19.13
2023-01-29T02:01:42.762Z,18.20
2023-01-29T02:04:31.735Z,17.87
2023-01-29T02:07:20.111Z,18.87
2023-01-29T02:09:52.607Z,17.40
2023-01-29T02:12:20.910Z,19.10
2023-01-29T02:14:47.986Z,18.50
2023-01-29T02:17:17.533Z,18.63
2023-01-29T02:19:47.039Z,19.70
2023-01-29T02:22:47.484Z,20.00
2023-01-29T02:25:47.422Z,18.93
2023-01-29T02:28:45.040Z,19.97
2023-01-29T02:31:38.248Z,19.07
2023-01-29T02:34:31.437Z,19.00
2023-01-29T02:37:09.870Z,19.30
2023-01-29T02:39:41.019Z,19.43
2023-01-29T02:42:28.280Z,18.10
2023-01-29T02:45:21.341Z,18.60
2023-01-29T02:47:50.252Z,18.60
2023-01-29T02:50:44.277Z,19.43
2023-01-29T02:53:33.142Z,17.83
2023-01-29T02:56:17.529Z,20.17
2023-01-29T02:58:58.861Z,19.20
2023-01-29T03:01:48.182Z,18.53
2023-01-29T03:04:22.547Z,18.83
2023-01-29T03:06:54.405Z,19.00
2023-01-29T03:09:36.301Z,19.13
2023-01-29T03:12:19.952Z,18.20
2023-01-29T03:15:08.509Z,18.70
2023-01-29T03:18:10.941Z,18.73
2023-01-29T03:20:50.143Z,19.83
2023-01-29T03:23:27.149Z,17.07
2023-01-29T03:26:18.141Z,18.97
2023-01-29T03:29:05.415Z,18.17
2023-01-29T03:31:52.122Z,19.40
2023-01-29T03:34:34.657Z,18.60
2023-01-29T03:37:11.054Z,18.80
2023-01-29T03:39:37.729Z,18.87
2023-01-29T03:42:10.459Z,18.67
2023-01-29T03:45:08.516Z,17.03
2023-01-29T03:48:03.917Z,18.77
2023-01-29T03:50:53.761Z,17.77
2023-01-29T03:53:26.552Z,19.87
2023-01-29T03:56:01.189Z,20.20
2023-01-29T03:58:42.870Z,18.47
2023-01-29T04:01:29.214Z,18.30
2023-01-29T04:03:59.007Z,17.67
2023-01-29T04:06:30.026Z,18.33
2023-01-29T04:09:04.958Z,18.67
2023-01-29T04:11:34.431Z,19.00
2023-01-29T04:14:01.146Z,19.43
2023-01-29T04:16:33.250Z,19.20
2023-01-29T04:19:00.597Z,19.93
2023-01-29T04:21:28.000Z,19.57
2023-01-29T04:23:54.773Z,18.00
2023-01-29T04:26:27.344Z,18.37
2023-01-29T04:29:08.078Z,19.33
2023-01-29T04:32:13.178Z,19.47
2023-01-29T04:34:54.804Z,19.00
2023-01-29T04:37:35.857Z,18.70
2023-01-29T04:40:18.363Z,18.53
2023-01-29T04:42:56.988Z,20.97
2023-01-29T04:45:41.767Z,19.93
2023-01-29T04:48:11.202Z,18.50
2023-01-29T04:50:44.381Z,19.43
2023-01-29T04:53:28.984Z,20.13
2023-01-29T04:56:01.463Z,19.07
2023-01-29T04:58:34.104Z,18.33
2023-01-29T05:01:05.119Z,19.07
2023-01-29T05:03:33.832Z,19.43
2023-01-29T05:06:01.920Z,20.10
2023-01-29T05:08:30.691Z,20.37
2023-01-29T05:10:58.765Z,20.17
2023-01-29T05:13:26.759Z,19.60
2023-01-29T05:16:12.605Z,20.23
2023-01-29T05:18:40.986Z,20.43
2023-01-29T05:21:09.386Z,19.53
2023-01-29T05:23:36.488Z,20.33
2023-01-29T05:26:03.358Z,20.53
2023-01-29T05:28:30.080Z,20.03
2023-01-29T05:30:57.685Z,18.63
2023-01-29T05:33:28.721Z,19.40
2023-01-29T05:35:56.466Z,20.23
2023-01-29T05:38:23.377Z,20.33
2023-01-29T05:40:50.375Z,21.37
2023-01-29T05:43:24.998Z,20.60
2023-01-29T05:45:53.695Z,21.20
2023-01-29T05:48:20.613Z,21.40
2023-01-29T05:50:47.267Z,22.47
2023-01-29T05:53:14.049Z,22.17
2023-01-29T05:55:43.699Z,21.33
2023-01-29T05:58:10.348Z,21.07
2023-01-29T06:00:37.187Z,21.47
2023-01-29T06:03:04.027Z,22.57
2023-01-29T06:05:30.738Z,22.67
2023-01-29T06:07:57.395Z,22.07
2023-01-29T06:10:24.404Z,21.50
2023-01-29T06:12:51.086Z,22.23
2023-01-29T06:15:19.676Z,22.07
2023-01-29T06:17:46.351Z,22.60
2023-01-29T06:20:13.187Z,22.07
2023-01-29T06:22:39.890Z,24.50
2023-01-29T06:25:07.269Z,24.47
2023-01-29T06:27:33.944Z,22.27
2023-01-29T06:30:00.588Z,22.70
2023-01-29T06:32:27.838Z,22.43
2023-01-29T06:34:54.509Z,22.67
2023-01-29T06:37:21.159Z,23.67
2023-01-29T06:39:47.801Z,22.00
2023-01-29T06:42:14.656Z,21.60
2023-01-29T06:44:41.311Z,23.03
2023-01-29T06:47:07.959Z,24.20
2023-01-29T06:49:34.589Z,22.40
2023-01-29T06:52:01.226Z,22.13
2023-01-29T06:54:27.862Z,23.17
2023-01-29T06:56:54.526Z,23.57
2023-01-29T06:59:21.260Z,22.17
2023-01-29T07:01:48.070Z,22.40
2023-01-29T07:04:14.831Z,22.57
2023-01-29T07:06:42.092Z,21.50
2023-01-29T07:09:11.496Z,22.57
2023-01-29T07:11:38.185Z,23.00
2023-01-29T07:14:04.902Z,22.43
2023-01-29T07:16:32.025Z,23.07
2023-01-29T07:18:58.827Z,23.40
2023-01-29T07:21:25.778Z,23.13
2023-01-29T07:23:52.549Z,22.57
2023-01-29T07:26:19.324Z,22.60
2023-01-29T07:28:46.011Z,22.77
2023-01-29T07:31:14.770Z,24.27
2023-01-29T07:33:44.008Z,23.50
2023-01-29T07:36:12.588Z,23.40
2023-01-29T07:38:39.389Z,23.43
2023-01-29T07:41:06.494Z,24.00
2023-01-29T07:43:33.333Z,23.27
2023-01-29T07:46:04.816Z,21.97
2023-01-29T07:48:31.624Z,23.57
2023-01-29T07:50:59.035Z,24.60
2023-01-29T07:53:25.921Z,23.93
2023-01-29T07:55:52.765Z,24.03
2023-01-29T07:58:19.993Z,24.13
2023-01-29T08:00:46.851Z,24.40
2023-01-29T08:03:16.653Z,25.10
2023-01-29T08:05:44.628Z,25.57
2023-01-29T08:08:11.675Z,24.87
2023-01-29T08:10:39.858Z,24.53
2023-01-29T08:13:07.579Z,25.63
2023-01-29T08:15:37.098Z,25.13
2023-01-29T08:18:05.069Z,25.67
2023-01-29T08:20:31.870Z,23.77
2023-01-29T08:23:00.342Z,23.60
2023-01-29T08:25:27.715Z,24.43
2023-01-29T08:27:56.082Z,24.33
2023-01-29T08:30:25.309Z,23.90
2023-01-29T08:32:52.039Z,24.43
2023-01-29T08:35:18.974Z,24.13
2023-01-29T08:37:59.724Z,21.83
2023-01-29T08:40:28.626Z,22.73
2023-01-29T08:43:14.342Z,21.97
2023-01-29T08:45:43.166Z,21.27
2023-01-29T08:48:10.359Z,22.27
2023-01-29T08:50:37.767Z,21.80
2023-01-29T08:53:09.692Z,21.47
2023-01-29T08:55:40.456Z,21.40
2023-01-29T08:58:08.808Z,20.60
2023-01-29T09:00:35.552Z,22.43
2023-01-29T09:03:03.223Z,20.87
2023-01-29T09:05:29.903Z,21.60
2023-01-29T09:07:59.563Z,19.27
2023-01-29T09:10:26.457Z,20.93
2023-01-29T09:12:53.101Z,20.47
2023-01-29T09:15:20.053Z,20.10
2023-01-29T09:17:47.069Z,20.20
2023-01-29T09:20:13.777Z,20.27
2023-01-29T09:22:40.457Z,20.67
2023-01-29T09:25:07.759Z,20.93
2023-01-29T09:27:34.551Z,20.30
2023-01-29T09:30:01.242Z,19.73
2023-01-29T09:35:17.393Z,20.93
2023-01-29T09:37:47.986Z,19.73
2023-01-29T09:40:33.578Z,20.93
2023-01-29T09:43:13.235Z,19.53
2023-01-29T09:46:03.900Z,18.57
2023-01-29T09:48:34.226Z,21.07
2023-01-29T09:51:06.803Z,21.10
2023-01-29T09:53:43.313Z,20.77
2023-01-29T09:56:18.878Z,19.73
2023-01-29T09:58:45.781Z,21.77
2023-01-29T10:01:21.355Z,20.40
2023-01-29T10:04:13.382Z,18.63
2023-01-29T10:07:22.195Z,19.80
2023-01-29T10:09:57.460Z,18.40
2023-01-29T10:12:52.707Z,18.27
2023-01-29T10:15:36.501Z,19.37
2023-01-29T10:18:09.291Z,19.73
2023-01-29T10:21:09.258Z,18.70
2023-01-29T10:23:43.976Z,18.27
2023-01-29T10:26:12.731Z,18.03
2023-01-29T10:28:52.503Z,18.23
2023-01-29T10:31:27.803Z,19.50
2023-01-29T10:34:02.729Z,21.10
2023-01-29T10:36:44.486Z,19.33
2023-01-29T10:39:22.411Z,18.33
2023-01-29T10:42:44.895Z,18.80
2023-01-29T10:45:33.822Z,19.33
2023-01-29T10:48:35.352Z,17.90
2023-01-29T10:51:14.584Z,18.27
2023-01-29T10:53:57.191Z,19.83
2023-01-29T10:56:38.001Z,18.73
2023-01-29T10:59:29.524Z,20.33
2023-01-29T11:02:00.261Z,18.60
2023-01-29T11:04:29.606Z,20.27
2023-01-29T11:06:56.743Z,18.73
2023-01-29T11:09:35.302Z,18.77
2023-01-29T11:12:21.759Z,19.67
2023-01-29T11:14:55.467Z,19.93
2023-01-29T11:17:24.655Z,22.20
2023-01-29T11:19:53.383Z,21.40
2023-01-29T11:22:24.247Z,20.17
2023-01-29T11:25:15.669Z,19.30
2023-01-29T11:28:02.920Z,19.77
2023-01-29T11:30:37.748Z,19.00
2023-01-29T11:33:20.348Z,19.10
2023-01-29T11:35:47.090Z,19.23
2023-01-29T11:38:16.537Z,21.03
2023-01-29T11:40:44.066Z,20.57
2023-01-29T11:43:24.202Z,21.50
2023-01-29T11:45:57.531Z,21.47
2023-01-29T11:48:31.792Z,20.77
2023-01-29T11:51:04.841Z,20.57
2023-01-29T11:53:45.138Z,21.90
2023-01-29T11:56:35.229Z,21.73
2023-01-29T11:59:04.657Z,22.03
2023-01-29T12:01:40.929Z,22.23
2023-01-29T12:04:22.254Z,22.03
2023-01-29T12:06:52.581Z,21.03
2023-01-29T12:09:27.295Z,22.23
2023-01-29T12:11:54.389Z,23.23
2023-01-29T12:14:33.494Z,23.03
2023-01-29T12:17:12.237Z,22.10
2023-01-29T12:19:50.949Z,22.37
2023-01-29T12:22:24.922Z,24.33
2023-01-29T12:25:09.509Z,23.30
2023-01-29T12:28:02.333Z,22.77
2023-01-29T12:30:43.947Z,24.73
2023-01-29T12:33:13.630Z,24.73
2023-01-29T12:35:50.639Z,25.53
2023-01-29T12:38:17.388Z,23.60
2023-01-29T12:40:46.320Z,26.23
2023-01-29T12:43:17.807Z,25.23
2023-01-29T12:45:52.138Z,24.73
2023-01-29T12:48:27.789Z,24.67
2023-01-29T12:50:58.756Z,26.67
2023-01-29T12:53:40.307Z,25.70
2023-01-29T12:56:29.552Z,27.80
2023-01-29T12:58:57.780Z,26.33
2023-01-29T13:01:27.331Z,27.73
2023-01-29T13:04:06.354Z,27.50
2023-01-29T13:06:46.612Z,28.97
2023-01-29T13:09:25.421Z,29.80
2023-01-29T13:12:00.790Z,29.00
2023-01-29T13:14:54.001Z,28.77
2023-01-29T13:17:42.514Z,29.20
2023-01-29T13:20:32.623Z,29.00
2023-01-29T13:23:12.845Z,30.10
2023-01-29T13:25:39.605Z,30.00
2023-01-29T13:28:06.400Z,30.07
2023-01-29T13:30:36.748Z,30.73
2023-01-29T13:33:09.750Z,29.10
2023-01-29T13:35:40.714Z,30.77
2023-01-29T13:38:30.932Z,30.13
2023-01-29T13:41:03.126Z,30.53
2023-01-29T13:43:38.287Z,29.23
2023-01-29T13:46:12.294Z,30.63
2023-01-29T13:48:48.038Z,30.53
2023-01-29T13:51:20.906Z,31.77
2023-01-29T13:54:07.999Z,29.03
2023-01-29T13:56:34.736Z,29.30
2023-01-29T13:59:03.449Z,30.80
2023-01-29T14:01:48.919Z,31.83
2023-01-29T14:04:25.585Z,28.57
2023-01-29T14:06:55.420Z,29.70
2023-01-29T14:09:34.502Z,34.60
2023-01-29T14:12:01.621Z,29.00
2023-01-29T14:14:59.625Z,27.17
2023-01-29T14:17:27.339Z,28.87
2023-01-29T14:20:04.510Z,27.27
2023-01-29T14:22:33.880Z,28.47
2023-01-29T14:25:04.790Z,28.93
2023-01-29T14:27:32.543Z,28.40
2023-01-29T14:30:02.577Z,28.07
2023-01-29T14:32:30.065Z,28.73
2023-01-29T14:35:01.203Z,28.60
2023-01-29T14:37:38.944Z,29.03
2023-01-29T14:40:11.967Z,27.13
2023-01-29T14:42:52.414Z,27.60
2023-01-29T14:45:35.579Z,27.00
2023-01-29T14:48:11.226Z,27.30
2023-01-29T14:50:40.708Z,27.67
2023-01-29T14:53:29.785Z,25.80
2023-01-29T14:56:04.098Z,26.90
2023-01-29T14:58:42.348Z,28.27
2023-01-29T15:01:22.976Z,27.03
2023-01-29T15:03:57.464Z,27.33
2023-01-29T15:06:35.688Z,25.83
2023-01-29T15:09:17.509Z,25.90
2023-01-29T15:11:52.020Z,26.60
2023-01-29T15:14:40.748Z,26.87
2023-01-29T15:17:19.674Z,26.23
2023-01-29T15:19:48.468Z,26.53
2023-01-29T15:22:16.838Z,25.83
2023-01-29T15:24:45.011Z,28.47
2023-01-29T15:27:20.434Z,28.10
2023-01-29T15:29:58.921Z,27.27
2023-01-29T15:32:33.717Z,27.93
2023-01-29T15:35:05.863Z,27.17
2023-01-29T15:37:34.948Z,29.17
2023-01-29T15:40:02.360Z,29.00
2023-01-29T15:42:41.305Z,30.17
2023-01-29T15:45:26.035Z,27.50
2023-01-29T15:47:55.359Z,28.60
2023-01-29T15:50:22.685Z,28.90
2023-01-29T15:52:52.787Z,28.07
2023-01-29T15:55:23.268Z,27.57
2023-01-29T15:57:50.849Z,26.97
2023-01-29T16:00:27.355Z,26.27
2023-01-29T16:02:55.057Z,25.50
2023-01-29T16:05:30.081Z,27.57
2023-01-29T16:07:57.720Z,26.80
2023-01-29T16:10:28.456Z,25.80
2023-01-29T16:12:55.872Z,26.30
2023-01-29T16:15:35.012Z,27.73
2023-01-29T16:18:05.014Z,25.90
2023-01-29T16:20:47.450Z,26.77
2023-01-29T16:23:33.330Z,28.30
2023-01-29T16:26:07.431Z,27.47
2023-01-29T16:28:41.023Z,27.27
2023-01-29T16:31:09.703Z,28.43
2023-01-29T16:33:39.987Z,28.23
2023-01-29T16:36:17.600Z,36.33
2023-01-29T16:38:49.858Z,29.10
2023-01-29T16:41:33.210Z,29.93
2023-01-29T16:44:22.377Z,29.73
2023-01-29T16:46:51.433Z,28.97
2023-01-29T16:49:27.101Z,30.10
2023-01-29T16:51:56.445Z,32.10
2023-01-29T16:54:27.594Z,31.23
2023-01-29T16:57:02.067Z,31.90
2023-01-29T16:59:38.591Z,32.27
2023-01-29T17:02:21.813Z,31.03
2023-01-29T17:04:48.711Z,30.50
2023-01-29T17:07:21.209Z,30.40
2023-01-29T17:09:55.595Z,31.17
2023-01-29T17:12:25.251Z,32.53
2023-01-29T17:15:04.485Z,30.97
2023-01-29T17:17:33.757Z,30.47
2023-01-29T17:20:14.137Z,32.07
2023-01-29T17:22:40.980Z,33.03
2023-01-29T17:25:09.484Z,31.33
2023-01-29T17:27:40.965Z,32.43
2023-01-29T17:30:14.960Z,30.53
2023-01-29T17:32:45.244Z,30.93
2023-01-29T17:35:16.295Z,31.53
2023-01-29T17:37:44.287Z,30.03
2023-01-29T17:40:40.984Z,31.43
2023-01-29T17:43:07.801Z,30.73
2023-01-29T17:45:34.658Z,30.63
2023-01-29T17:48:01.487Z,27.77
2023-01-29T17:50:31.308Z,31.17
2023-01-29T17:52:58.195Z,30.10
2023-01-29T17:55:24.955Z,30.00
2023-01-29T17:57:51.717Z,29.93
2023-01-29T18:00:24.831Z,30.30
2023-01-29T18:02:51.864Z,30.60
2023-01-29T18:05:19.964Z,30.10
2023-01-29T18:07:47.716Z,30.43
2023-01-29T18:10:18.497Z,28.63
2023-01-29T18:12:45.312Z,28.73
2023-01-29T18:15:13.055Z,30.10
2023-01-29T18:17:40.633Z,30.37
2023-01-29T18:20:20.515Z,30.77
2023-01-29T18:22:47.767Z,28.73
2023-01-29T18:25:15.775Z,28.70
2023-01-29T18:27:42.922Z,28.70
2023-01-29T18:30:10.964Z,30.80
2023-01-29T18:32:37.857Z,30.53
2023-01-29T18:35:06.522Z,27.60
2023-01-29T18:37:33.706Z,31.23
2023-01-29T18:40:00.413Z,28.57
2023-01-29T18:42:27.150Z,28.23
2023-01-29T18:44:53.902Z,27.63
2023-01-29T18:47:20.575Z,26.97
2023-01-29T18:49:47.257Z,27.57
2023-01-29T18:52:14.074Z,27.93
2023-01-29T18:54:40.769Z,27.77
2023-01-29T18:57:14.030Z,27.33
2023-01-29T18:59:42.834Z,28.23
2023-01-29T19:02:16.180Z,26.80
2023-01-29T19:04:43.063Z,27.90
2023-01-29T19:07:11.084Z,27.63
2023-01-29T19:09:37.917Z,27.00
2023-01-29T19:12:05.523Z,27.80
2023-01-29T19:14:32.861Z,28.40
2023-01-29T19:17:01.757Z,27.90
2023-01-29T19:19:28.782Z,27.53
2023-01-29T19:21:55.522Z,28.00
2023-01-29T19:24:23.084Z,25.93
2023-01-29T19:26:50.160Z,26.57
2023-01-29T19:29:17.739Z,26.80
2023-01-29T19:31:44.816Z,25.67
2023-01-29T19:34:11.560Z,27.80
2023-01-29T19:36:38.561Z,26.17
2023-01-29T19:39:05.611Z,27.10
2023-01-29T19:41:32.517Z,26.30
2023-01-29T19:43:59.195Z,27.50
2023-01-29T19:46:25.974Z,28.40
2023-01-29T19:48:54.607Z,26.57
2023-01-29T19:51:23.259Z,27.30
2023-01-29T19:53:50.065Z,27.73
2023-01-29T19:56:18.867Z,27.20
2023-01-29T19:58:46.069Z,27.17
2023-01-29T20:01:15.848Z,26.50
2023-01-29T20:03:42.906Z,25.87
2023-01-29T20:06:09.745Z,26.27
2023-01-29T20:08:36.525Z,26.23
2023-01-29T20:11:05.570Z,26.97
2023-01-29T20:13:33.039Z,26.87
2023-01-29T20:16:03.165Z,27.97
2023-01-29T20:18:30.229Z,28.20
2023-01-29T20:20:57.163Z,28.93
2023-01-29T20:23:37.028Z,29.57
2023-01-29T20:26:05.690Z,29.73
2023-01-29T20:28:32.659Z,28.60
2023-01-29T20:30:59.425Z,28.97
2023-01-29T20:33:26.921Z,27.83
2023-01-29T20:35:55.108Z,27.13
2023-01-29T20:38:21.907Z,28.00
2023-01-29T20:40:48.758Z,27.97
2023-01-29T20:43:15.703Z,27.60
2023-01-29T20:45:42.661Z,28.83
2023-01-29T20:48:09.367Z,28.50
2023-01-29T20:50:36.151Z,27.80
2023-01-29T20:53:02.909Z,29.30
2023-01-29T20:55:31.480Z,28.73
2023-01-29T20:58:05.842Z,28.00
2023-01-29T21:00:33.548Z,28.03
2023-01-29T21:03:00.282Z,29.47
2023-01-29T21:05:26.962Z,29.57
2023-01-29T21:07:53.630Z,30.60
2023-01-29T21:10:20.384Z,30.27
2023-01-29T21:12:47.099Z,30.90
2023-01-29T21:15:13.978Z,29.10
2023-01-29T21:17:40.591Z,30.27
2023-01-29T21:20:08.311Z,30.70
2023-01-29T21:22:35.041Z,29.07
2023-01-29T21:25:01.706Z,29.33
2023-01-29T21:27:28.381Z,31.10
2023-01-29T21:29:55.033Z,32.97
2023-01-29T21:32:21.875Z,31.33
2023-01-29T21:34:48.994Z,30.97
2023-01-29T21:37:16.120Z,31.00
2023-01-29T21:39:42.819Z,32.03
2023-01-29T21:42:27.941Z,33.80
2023-01-29T21:44:54.566Z,29.13
2023-01-29T21:47:22.258Z,31.43
2023-01-29T21:49:48.918Z,31.50
2023-01-29T21:52:16.030Z,32.43
2023-01-29T21:54:46.895Z,33.47
2023-01-29T21:57:15.312Z,33.60
2023-01-29T21:59:42.642Z,34.37
2023-01-29T22:02:15.666Z,34.00
2023-01-29T22:04:42.641Z,33.73
2023-01-29T22:07:10.790Z,32.13
2023-01-29T22:09:37.986Z,31.17
2023-01-29T22:12:06.718Z,35.67
2023-01-29T22:14:34.334Z,32.00
2023-01-29T22:17:01.296Z,35.17
2023-01-29T22:19:29.389Z,33.33
2023-01-29T22:21:56.220Z,34.13
2023-01-29T22:24:23.705Z,35.03
2023-01-29T22:26:50.555Z,34.30
2023-01-29T22:29:17.588Z,34.17
2023-01-29T22:31:44.535Z,33.20
2023-01-29T22:34:12.505Z,33.10
2023-01-29T22:36:39.408Z,31.33
2023-01-29T22:39:08.472Z,32.87
2023-01-29T22:41:35.871Z,31.67
2023-01-29T22:44:02.806Z,33.77
2023-01-29T22:46:29.553Z,33.37
2023-01-29T22:48:56.689Z,35.67
2023-01-29T22:51:23.488Z,33.17
2023-01-29T22:53:55.998Z,34.47
2023-01-29T22:56:28.112Z,34.23
2023-01-29T22:58:57.419Z,34.63
2023-01-29T23:01:26.652Z,34.47
2023-01-29T23:03:53.578Z,35.63
2023-01-29T23:06:23.539Z,35.30
2023-01-29T23:08:50.998Z,35.83
2023-01-29T23:11:20.471Z,36.70
2023-01-29T23:13:52.797Z,36.40
2023-01-29T23:16:22.243Z,35.83
2023-01-29T23:18:51.576Z,38.53
2023-01-29T23:21:19.422Z,36.23
2023-01-29T23:23:46.112Z,33.20
2023-01-29T23:26:31.987Z,36.20
2023-01-29T23:28:59.240Z,37.03
2023-01-29T23:31:26.057Z,34.97
2023-01-29T23:33:52.738Z,34.93
2023-01-29T23:36:19.408Z,35.33
2023-01-29T23:38:46.189Z,35.67
2023-01-29T23:41:12.895Z,35.63
2023-01-29T23:43:39.654Z,34.57
2023-01-29T23:46:06.340Z,34.57
2023-01-29T23:48:33.228Z,34.33
2023-01-29T23:50:59.946Z,33.73
2023-01-29T23:53:26.598Z,34.70
2023-01-29T23:56:00.693Z,35.27
2023-01-29T23:58:28.076Z,35.37
